sensor_id;sensor_type;location;lat;lon;timestamp;P1;durP1;ratioP1;P2;durP2;ratioP2
62463;SDS011;48512;48.552;9.380;2024-01-15T00:00:26;24.30;;;9.32;;
62463;SDS011;48512;48.552;9.380;2024-01-15T00:02:52;25.50;;;9.80;;
62463;SDS011;48512;48.552;9.380;2024-01-15T00:05:18;24.13;;;9.35;;
62463;SDS011;48512;48.552;9.380;2024-01-15T00:07:44;27.35;;;9.45;;
62463;SDS011;48512;48.552;9.380;2024-01-15T00:10:10;27.90;;;10.15;;
62463;SDS011;48512;48.552;9.380;2024-01-15T00:12:36;26.10;;;8.48;;
62463;SDS011;48512;48.552;9.380;2024-01-15T00:15:03;21.42;;;8.35;;
62463;SDS011;48512;48.552;9.380;2024-01-15T00:17:30;22.75;;;8.68;;
62463;SDS011;48512;48.552;9.380;2024-01-15T00:19:57;25.33;;;9.10;;
62463;SDS011;48512;48.552;9.380;2024-01-15T00:22:25;24.00;;;10.27;;
62463;SDS011;48512;48.552;9.380;2024-01-15T00:24:52;24.65;;;8.48;;
62463;SDS011;48512;48.552;9.380;2024-01-15T00:27:18;26.10;;;10.00;;
62463;SDS011;48512;48.552;9.380;2024-01-15T00:29:44;22.98;;;8.90;;
62463;SDS011;48512;48.552;9.380;2024-01-15T00:32:11;21.92;;;8.93;;
62463;SDS011;48512;48.552;9.380;2024-01-15T00:34:37;23.05;;;8.57;;
62463;SDS011;48512;48.552;9.380;2024-01-15T00:37:03;24.17;;;8.65;;
62463;SDS011;48512;48.552;9.380;2024-01-15T00:39:29;25.38;;;9.20;;
62463;SDS011;48512;48.552;9.380;2024-01-15T00:41:55;25.17;;;9.45;;
62463;SDS011;48512;48.552;9.380;2024-01-15T00:44:21;27.52;;;9.63;;
62463;SDS011;48512;48.552;9.380;2024-01-15T00:46:47;27.00;;;9.07;;
62463;SDS011;48512;48.552;9.380;2024-01-15T00:49:13;22.35;;;8.98;;
62463;SDS011;48512;48.552;9.380;2024-01-15T00:51:40;24.23;;;9.30;;
62463;SDS011;48512;48.552;9.380;2024-01-15T00:54:06;29.40;;;10.07;;
62463;SDS011;48512;48.552;9.380;2024-01-15T00:56:32;22.55;;;8.73;;
62463;SDS011;48512;48.552;9.380;2024-01-15T00:58:59;25.40;;;8.55;;
62463;SDS011;48512;48.552;9.380;2024-01-15T01:01:26;24.77;;;8.82;;
62463;SDS011;48512;48.552;9.380;2024-01-15T01:03:52;28.80;;;8.80;;
62463;SDS011;48512;48.552;9.380;2024-01-15T01:06:18;17.63;;;7.25;;
62463;SDS011;48512;48.552;9.380;2024-01-15T01:08:44;27.60;;;8.38;;
62463;SDS011;48512;48.552;9.380;2024-01-15T01:11:13;18.35;;;7.70;;
62463;SDS011;48512;48.552;9.380;2024-01-15T01:13:40;22.58;;;7.78;;
62463;SDS011;48512;48.552;9.380;2024-01-15T01:16:06;19.27;;;7.22;;
62463;SDS011;48512;48.552;9.380;2024-01-15T01:18:33;17.40;;;7.07;;
62463;SDS011;48512;48.552;9.380;2024-01-15T01:20:59;21.73;;;8.13;;
62463;SDS011;48512;48.552;9.380;2024-01-15T01:23:25;19.77;;;7.40;;
62463;SDS011;48512;48.552;9.380;2024-01-15T01:25:51;24.48;;;8.50;;
62463;SDS011;48512;48.552;9.380;2024-01-15T01:28:17;23.38;;;8.13;;
62463;SDS011;48512;48.552;9.380;2024-01-15T01:30:43;25.13;;;8.23;;
62463;SDS011;48512;48.552;9.380;2024-01-15T01:33:09;24.42;;;7.55;;
62463;SDS011;48512;48.552;9.380;2024-01-15T01:35:35;18.65;;;7.32;;
62463;SDS011;48512;48.552;9.380;2024-01-15T01:38:02;24.80;;;8.38;;
62463;SDS011;48512;48.552;9.380;2024-01-15T01:43:05;18.60;;;7.82;;
62463;SDS011;48512;48.552;9.380;2024-01-15T01:45:31;23.00;;;8.10;;
62463;SDS011;48512;48.552;9.380;2024-01-15T01:47:57;21.00;;;7.40;;
62463;SDS011;48512;48.552;9.380;2024-01-15T01:50:23;23.38;;;8.60;;
62463;SDS011;48512;48.552;9.380;2024-01-15T01:52:50;24.98;;;7.95;;
62463;SDS011;48512;48.552;9.380;2024-01-15T01:55:16;21.45;;;6.97;;
62463;SDS011;48512;48.552;9.380;2024-01-15T01:57:42;24.27;;;8.68;;
62463;SDS011;48512;48.552;9.380;2024-01-15T02:00:09;20.98;;;7.95;;
62463;SDS011;48512;48.552;9.380;2024-01-15T02:02:38;20.77;;;7.95;;
62463;SDS011;48512;48.552;9.380;2024-01-15T02:05:05;20.02;;;6.63;;
62463;SDS011;48512;48.552;9.380;2024-01-15T02:07:34;22.95;;;8.43;;
62463;SDS011;48512;48.552;9.380;2024-01-15T02:10:00;18.35;;;6.80;;
62463;SDS011;48512;48.552;9.380;2024-01-15T02:12:26;20.63;;;7.22;;
62463;SDS011;48512;48.552;9.380;2024-01-15T02:14:52;21.73;;;7.38;;
62463;SDS011;48512;48.552;9.380;2024-01-15T02:17:19;17.63;;;6.57;;
62463;SDS011;48512;48.552;9.380;2024-01-15T02:19:45;19.05;;;6.43;;
62463;SDS011;48512;48.552;9.380;2024-01-15T02:22:11;23.90;;;8.23;;
62463;SDS011;48512;48.552;9.380;2024-01-15T02:24:37;21.60;;;7.55;;
62463;SDS011;48512;48.552;9.380;2024-01-15T02:27:03;20.85;;;7.38;;
62463;SDS011;48512;48.552;9.380;2024-01-15T02:29:29;22.05;;;7.10;;
62463;SDS011;48512;48.552;9.380;2024-01-15T02:31:55;19.65;;;6.22;;
62463;SDS011;48512;48.552;9.380;2024-01-15T02:34:21;20.38;;;7.68;;
62463;SDS011;48512;48.552;9.380;2024-01-15T02:36:47;20.30;;;7.05;;
62463;SDS011;48512;48.552;9.380;2024-01-15T02:39:13;19.30;;;7.45;;
62463;SDS011;48512;48.552;9.380;2024-01-15T02:41:40;22.40;;;8.15;;
62463;SDS011;48512;48.552;9.380;2024-01-15T02:44:06;18.70;;;6.95;;
62463;SDS011;48512;48.552;9.380;2024-01-15T02:46:32;26.70;;;8.38;;
62463;SDS011;48512;48.552;9.380;2024-01-15T02:48:58;22.15;;;6.57;;
62463;SDS011;48512;48.552;9.380;2024-01-15T02:51:24;19.75;;;7.20;;
62463;SDS011;48512;48.552;9.380;2024-01-15T02:53:50;22.45;;;8.00;;
62463;SDS011;48512;48.552;9.380;2024-01-15T02:56:16;19.48;;;8.02;;
62463;SDS011;48512;48.552;9.380;2024-01-15T02:58:42;21.15;;;7.28;;
62463;SDS011;48512;48.552;9.380;2024-01-15T03:01:08;20.90;;;7.07;;
62463;SDS011;48512;48.552;9.380;2024-01-15T03:03:34;22.23;;;8.35;;
62463;SDS011;48512;48.552;9.380;2024-01-15T03:06:01;24.42;;;7.53;;
62463;SDS011;48512;48.552;9.380;2024-01-15T03:08:28;19.60;;;7.00;;
62463;SDS011;48512;48.552;9.380;2024-01-15T03:10:55;19.40;;;6.85;;
62463;SDS011;48512;48.552;9.380;2024-01-15T03:13:21;20.20;;;6.53;;
62463;SDS011;48512;48.552;9.380;2024-01-15T03:15:47;20.83;;;6.90;;
62463;SDS011;48512;48.552;9.380;2024-01-15T03:18:13;21.92;;;7.00;;
62463;SDS011;48512;48.552;9.380;2024-01-15T03:20:39;21.33;;;7.28;;
62463;SDS011;48512;48.552;9.380;2024-01-15T03:23:05;22.27;;;7.72;;
62463;SDS011;48512;48.552;9.380;2024-01-15T03:25:31;22.02;;;7.35;;
62463;SDS011;48512;48.552;9.380;2024-01-15T03:27:57;19.05;;;6.65;;
62463;SDS011;48512;48.552;9.380;2024-01-15T03:30:23;20.27;;;7.88;;
62463;SDS011;48512;48.552;9.380;2024-01-15T03:32:49;20.92;;;7.05;;
62463;SDS011;48512;48.552;9.380;2024-01-15T03:35:15;20.75;;;6.72;;
62463;SDS011;48512;48.552;9.380;2024-01-15T03:37:42;19.95;;;7.38;;
62463;SDS011;48512;48.552;9.380;2024-01-15T03:40:08;25.23;;;7.32;;
62463;SDS011;48512;48.552;9.380;2024-01-15T03:42:35;17.65;;;6.93;;
62463;SDS011;48512;48.552;9.380;2024-01-15T03:45:01;22.13;;;7.25;;
62463;SDS011;48512;48.552;9.380;2024-01-15T03:47:27;16.80;;;7.05;;
62463;SDS011;48512;48.552;9.380;2024-01-15T03:49:53;18.33;;;6.47;;
62463;SDS011;48512;48.552;9.380;2024-01-15T03:52:19;17.48;;;6.28;;
62463;SDS011;48512;48.552;9.380;2024-01-15T03:54:45;18.98;;;7.20;;
62463;SDS011;48512;48.552;9.380;2024-01-15T03:57:11;19.05;;;6.63;;
62463;SDS011;48512;48.552;9.380;2024-01-15T03:59:37;18.25;;;6.70;;
62463;SDS011;48512;48.552;9.380;2024-01-15T04:02:04;19.02;;;6.78;;
62463;SDS011;48512;48.552;9.380;2024-01-15T04:04:30;21.20;;;7.22;;
62463;SDS011;48512;48.552;9.380;2024-01-15T04:06:56;19.65;;;6.47;;
62463;SDS011;48512;48.552;9.380;2024-01-15T04:09:22;18.90;;;7.50;;
62463;SDS011;48512;48.552;9.380;2024-01-15T04:11:48;21.27;;;6.93;;
62463;SDS011;48512;48.552;9.380;2024-01-15T04:14:14;27.38;;;8.30;;
62463;SDS011;48512;48.552;9.380;2024-01-15T04:16:40;23.13;;;7.22;;
62463;SDS011;48512;48.552;9.380;2024-01-15T04:19:07;21.67;;;7.35;;
62463;SDS011;48512;48.552;9.380;2024-01-15T04:21:33;20.38;;;6.85;;
62463;SDS011;48512;48.552;9.380;2024-01-15T04:23:59;22.52;;;7.35;;
62463;SDS011;48512;48.552;9.380;2024-01-15T04:26:25;21.73;;;7.55;;
62463;SDS011;48512;48.552;9.380;2024-01-15T04:28:51;22.85;;;8.02;;
62463;SDS011;48512;48.552;9.380;2024-01-15T04:31:21;21.35;;;7.35;;
62463;SDS011;48512;48.552;9.380;2024-01-15T04:33:48;26.60;;;8.85;;
62463;SDS011;48512;48.552;9.380;2024-01-15T04:36:14;24.80;;;8.73;;
62463;SDS011;48512;48.552;9.380;2024-01-15T04:38:40;21.88;;;7.95;;
62463;SDS011;48512;48.552;9.380;2024-01-15T04:41:09;20.45;;;6.88;;
62463;SDS011;48512;48.552;9.380;2024-01-15T04:43:37;27.02;;;8.48;;
62463;SDS011;48512;48.552;9.380;2024-01-15T04:46:05;24.73;;;7.93;;
62463;SDS011;48512;48.552;9.380;2024-01-15T04:48:31;23.10;;;8.27;;
62463;SDS011;48512;48.552;9.380;2024-01-15T04:50:57;24.35;;;7.97;;
62463;SDS011;48512;48.552;9.380;2024-01-15T04:53:23;25.33;;;8.77;;
62463;SDS011;48512;48.552;9.380;2024-01-15T04:55:49;23.20;;;8.82;;
62463;SDS011;48512;48.552;9.380;2024-01-15T04:58:15;24.73;;;7.95;;
62463;SDS011;48512;48.552;9.380;2024-01-15T05:00:41;23.75;;;8.10;;
62463;SDS011;48512;48.552;9.380;2024-01-15T05:03:07;23.35;;;8.50;;
62463;SDS011;48512;48.552;9.380;2024-01-15T05:05:34;23.35;;;7.95;;
62463;SDS011;48512;48.552;9.380;2024-01-15T05:08:00;26.38;;;9.00;;
62463;SDS011;48512;48.552;9.380;2024-01-15T05:10:26;25.10;;;8.82;;
62463;SDS011;48512;48.552;9.380;2024-01-15T05:12:52;20.85;;;7.65;;
62463;SDS011;48512;48.552;9.380;2024-01-15T05:15:18;25.13;;;8.90;;
62463;SDS011;48512;48.552;9.380;2024-01-15T05:17:44;25.65;;;8.85;;
62463;SDS011;48512;48.552;9.380;2024-01-15T05:20:10;23.35;;;8.57;;
62463;SDS011;48512;48.552;9.380;2024-01-15T05:22:36;23.77;;;7.95;;
62463;SDS011;48512;48.552;9.380;2024-01-15T05:25:02;25.33;;;10.35;;
62463;SDS011;48512;48.552;9.380;2024-01-15T05:27:29;22.98;;;8.63;;
62463;SDS011;48512;48.552;9.380;2024-01-15T05:29:55;23.33;;;7.47;;
62463;SDS011;48512;48.552;9.380;2024-01-15T05:32:21;23.05;;;7.22;;
62463;SDS011;48512;48.552;9.380;2024-01-15T05:34:47;22.85;;;7.50;;
62463;SDS011;48512;48.552;9.380;2024-01-15T05:37:13;20.23;;;7.40;;
62463;SDS011;48512;48.552;9.380;2024-01-15T05:39:39;24.40;;;7.75;;
62463;SDS011;48512;48.552;9.380;2024-01-15T05:42:05;19.70;;;7.47;;
62463;SDS011;48512;48.552;9.380;2024-01-15T05:44:31;18.73;;;7.18;;
62463;SDS011;48512;48.552;9.380;2024-01-15T05:46:57;19.65;;;7.03;;
62463;SDS011;48512;48.552;9.380;2024-01-15T05:49:23;15.30;;;6.45;;
62463;SDS011;48512;48.552;9.380;2024-01-15T05:51:49;18.65;;;6.60;;
62463;SDS011;48512;48.552;9.380;2024-01-15T05:54:18;16.50;;;6.18;;
62463;SDS011;48512;48.552;9.380;2024-01-15T05:56:44;17.00;;;6.32;;
62463;SDS011;48512;48.552;9.380;2024-01-15T05:59:10;17.92;;;6.43;;
62463;SDS011;48512;48.552;9.380;2024-01-15T06:01:36;15.25;;;6.57;;
62463;SDS011;48512;48.552;9.380;2024-01-15T06:04:02;17.92;;;6.38;;
62463;SDS011;48512;48.552;9.380;2024-01-15T06:06:29;16.52;;;6.70;;
62463;SDS011;48512;48.552;9.380;2024-01-15T06:08:55;13.85;;;6.30;;
62463;SDS011;48512;48.552;9.380;2024-01-15T06:11:21;15.45;;;6.18;;
62463;SDS011;48512;48.552;9.380;2024-01-15T06:13:47;15.95;;;6.35;;
62463;SDS011;48512;48.552;9.380;2024-01-15T06:16:13;16.73;;;7.10;;
62463;SDS011;48512;48.552;9.380;2024-01-15T06:18:42;20.10;;;7.63;;
62463;SDS011;48512;48.552;9.380;2024-01-15T06:21:08;18.52;;;7.50;;
62463;SDS011;48512;48.552;9.380;2024-01-15T06:23:36;22.45;;;7.43;;
62463;SDS011;48512;48.552;9.380;2024-01-15T06:26:03;21.85;;;8.23;;
62463;SDS011;48512;48.552;9.380;2024-01-15T06:28:29;22.70;;;8.15;;
62463;SDS011;48512;48.552;9.380;2024-01-15T06:30:55;22.15;;;8.60;;
62463;SDS011;48512;48.552;9.380;2024-01-15T06:33:22;21.13;;;8.38;;
62463;SDS011;48512;48.552;9.380;2024-01-15T06:35:48;24.33;;;8.43;;
62463;SDS011;48512;48.552;9.380;2024-01-15T06:38:15;19.65;;;7.65;;
62463;SDS011;48512;48.552;9.380;2024-01-15T06:40:41;21.35;;;8.73;;
62463;SDS011;48512;48.552;9.380;2024-01-15T06:43:11;19.65;;;7.88;;
62463;SDS011;48512;48.552;9.380;2024-01-15T06:45:38;22.30;;;7.97;;
62463;SDS011;48512;48.552;9.380;2024-01-15T06:48:04;19.77;;;7.97;;
62463;SDS011;48512;48.552;9.380;2024-01-15T06:50:31;22.17;;;8.48;;
62463;SDS011;48512;48.552;9.380;2024-01-15T06:52:57;22.05;;;8.68;;
62463;SDS011;48512;48.552;9.380;2024-01-15T06:55:23;20.67;;;8.43;;
62463;SDS011;48512;48.552;9.380;2024-01-15T06:57:49;25.80;;;9.60;;
62463;SDS011;48512;48.552;9.380;2024-01-15T07:00:15;21.60;;;8.20;;
62463;SDS011;48512;48.552;9.380;2024-01-15T07:02:42;22.70;;;7.78;;
62463;SDS011;48512;48.552;9.380;2024-01-15T07:05:08;20.90;;;9.20;;
62463;SDS011;48512;48.552;9.380;2024-01-15T07:07:34;19.67;;;7.50;;
62463;SDS011;48512;48.552;9.380;2024-01-15T07:10:00;19.88;;;7.68;;
62463;SDS011;48512;48.552;9.380;2024-01-15T07:12:26;17.25;;;7.20;;
62463;SDS011;48512;48.552;9.380;2024-01-15T07:14:52;19.15;;;7.65;;
62463;SDS011;48512;48.552;9.380;2024-01-15T07:17:18;19.05;;;7.80;;
62463;SDS011;48512;48.552;9.380;2024-01-15T07:19:45;19.98;;;7.50;;
62463;SDS011;48512;48.552;9.380;2024-01-15T07:22:11;19.65;;;8.43;;
62463;SDS011;48512;48.552;9.380;2024-01-15T07:24:37;14.52;;;6.43;;
62463;SDS011;48512;48.552;9.380;2024-01-15T07:27:03;13.80;;;5.75;;
62463;SDS011;48512;48.552;9.380;2024-01-15T07:29:30;16.20;;;6.60;;
62463;SDS011;48512;48.552;9.380;2024-01-15T07:31:58;17.48;;;6.55;;
62463;SDS011;48512;48.552;9.380;2024-01-15T07:34:24;20.67;;;6.90;;
62463;SDS011;48512;48.552;9.380;2024-01-15T07:36:51;15.68;;;6.20;;
62463;SDS011;48512;48.552;9.380;2024-01-15T07:39:17;15.82;;;5.72;;
62463;SDS011;48512;48.552;9.380;2024-01-15T07:41:43;13.40;;;5.07;;
62463;SDS011;48512;48.552;9.380;2024-01-15T07:44:09;16.75;;;6.57;;
62463;SDS011;48512;48.552;9.380;2024-01-15T07:46:35;15.02;;;6.43;;
62463;SDS011;48512;48.552;9.380;2024-01-15T07:49:02;12.05;;;4.88;;
62463;SDS011;48512;48.552;9.380;2024-01-15T07:51:29;10.77;;;4.47;;
62463;SDS011;48512;48.552;9.380;2024-01-15T07:53:55;13.68;;;5.82;;
62463;SDS011;48512;48.552;9.380;2024-01-15T07:56:21;13.70;;;5.90;;
62463;SDS011;48512;48.552;9.380;2024-01-15T07:58:48;9.75;;;4.30;;
62463;SDS011;48512;48.552;9.380;2024-01-15T08:01:14;12.88;;;5.00;;
62463;SDS011;48512;48.552;9.380;2024-01-15T08:03:40;12.15;;;5.72;;
62463;SDS011;48512;48.552;9.380;2024-01-15T08:06:06;10.63;;;4.57;;
62463;SDS011;48512;48.552;9.380;2024-01-15T08:08:35;12.27;;;5.40;;
62463;SDS011;48512;48.552;9.380;2024-01-15T08:11:02;11.50;;;5.22;;
62463;SDS011;48512;48.552;9.380;2024-01-15T08:13:28;10.00;;;4.72;;
62463;SDS011;48512;48.552;9.380;2024-01-15T08:15:55;12.02;;;4.82;;
62463;SDS011;48512;48.552;9.380;2024-01-15T08:18:21;9.35;;;4.13;;
62463;SDS011;48512;48.552;9.380;2024-01-15T08:20:47;7.95;;;3.55;;
62463;SDS011;48512;48.552;9.380;2024-01-15T08:23:13;9.25;;;4.32;;
62463;SDS011;48512;48.552;9.380;2024-01-15T08:25:39;11.35;;;4.57;;
62463;SDS011;48512;48.552;9.380;2024-01-15T08:28:05;12.30;;;4.80;;
62463;SDS011;48512;48.552;9.380;2024-01-15T08:30:32;7.68;;;4.00;;
62463;SDS011;48512;48.552;9.380;2024-01-15T08:32:58;6.20;;;3.25;;
62463;SDS011;48512;48.552;9.380;2024-01-15T08:35:24;9.30;;;3.75;;
62463;SDS011;48512;48.552;9.380;2024-01-15T08:37:53;7.85;;;3.33;;
62463;SDS011;48512;48.552;9.380;2024-01-15T08:40:20;8.82;;;3.92;;
62463;SDS011;48512;48.552;9.380;2024-01-15T08:42:46;12.48;;;5.70;;
62463;SDS011;48512;48.552;9.380;2024-01-15T08:45:12;8.07;;;3.70;;
62463;SDS011;48512;48.552;9.380;2024-01-15T08:47:38;9.30;;;4.05;;
62463;SDS011;48512;48.552;9.380;2024-01-15T08:50:05;7.22;;;3.55;;
62463;SDS011;48512;48.552;9.380;2024-01-15T08:52:31;10.00;;;5.00;;
62463;SDS011;48512;48.552;9.380;2024-01-15T08:54:57;7.78;;;4.20;;
62463;SDS011;48512;48.552;9.380;2024-01-15T08:57:23;8.95;;;3.58;;
62463;SDS011;48512;48.552;9.380;2024-01-15T08:59:50;9.02;;;3.78;;
62463;SDS011;48512;48.552;9.380;2024-01-15T09:02:17;7.22;;;3.42;;
62463;SDS011;48512;48.552;9.380;2024-01-15T09:04:43;12.75;;;4.55;;
62463;SDS011;48512;48.552;9.380;2024-01-15T09:07:09;7.45;;;3.35;;
62463;SDS011;48512;48.552;9.380;2024-01-15T09:09:35;14.63;;;4.60;;
62463;SDS011;48512;48.552;9.380;2024-01-15T09:12:02;9.95;;;3.38;;
62463;SDS011;48512;48.552;9.380;2024-01-15T09:14:28;8.13;;;3.47;;
62463;SDS011;48512;48.552;9.380;2024-01-15T09:16:54;6.65;;;3.50;;
62463;SDS011;48512;48.552;9.380;2024-01-15T09:19:21;10.90;;;4.25;;
62463;SDS011;48512;48.552;9.380;2024-01-15T09:21:47;9.15;;;4.75;;
62463;SDS011;48512;48.552;9.380;2024-01-15T09:24:14;8.02;;;4.20;;
62463;SDS011;48512;48.552;9.380;2024-01-15T09:26:40;5.63;;;3.58;;
62463;SDS011;48512;48.552;9.380;2024-01-15T09:29:06;6.05;;;3.50;;
62463;SDS011;48512;48.552;9.380;2024-01-15T09:31:32;7.40;;;3.88;;
62463;SDS011;48512;48.552;9.380;2024-01-15T09:33:58;9.20;;;3.80;;
62463;SDS011;48512;48.552;9.380;2024-01-15T09:36:26;8.63;;;3.88;;
62463;SDS011;48512;48.552;9.380;2024-01-15T09:38:52;8.00;;;3.80;;
62463;SDS011;48512;48.552;9.380;2024-01-15T09:41:18;7.55;;;3.33;;
62463;SDS011;48512;48.552;9.380;2024-01-15T09:43:44;6.82;;;3.50;;
62463;SDS011;48512;48.552;9.380;2024-01-15T09:46:11;4.70;;;2.47;;
62463;SDS011;48512;48.552;9.380;2024-01-15T09:48:38;3.88;;;2.55;;
62463;SDS011;48512;48.552;9.380;2024-01-15T09:51:05;5.45;;;2.55;;
62463;SDS011;48512;48.552;9.380;2024-01-15T09:53:32;7.75;;;2.58;;
62463;SDS011;48512;48.552;9.380;2024-01-15T09:55:59;5.75;;;2.63;;
62463;SDS011;48512;48.552;9.380;2024-01-15T09:58:25;6.68;;;2.90;;
62463;SDS011;48512;48.552;9.380;2024-01-15T10:00:53;4.80;;;2.90;;
62463;SDS011;48512;48.552;9.380;2024-01-15T10:03:19;5.88;;;2.33;;
62463;SDS011;48512;48.552;9.380;2024-01-15T10:05:47;5.35;;;2.42;;
62463;SDS011;48512;48.552;9.380;2024-01-15T10:08:14;5.00;;;2.75;;
62463;SDS011;48512;48.552;9.380;2024-01-15T10:10:41;7.18;;;2.67;;
62463;SDS011;48512;48.552;9.380;2024-01-15T10:13:07;6.22;;;3.08;;
62463;SDS011;48512;48.552;9.380;2024-01-15T10:15:33;6.43;;;2.60;;
62463;SDS011;48512;48.552;9.380;2024-01-15T10:18:02;4.80;;;2.30;;
62463;SDS011;48512;48.552;9.380;2024-01-15T10:20:31;4.45;;;2.55;;
62463;SDS011;48512;48.552;9.380;2024-01-15T10:22:58;3.88;;;2.58;;
62463;SDS011;48512;48.552;9.380;2024-01-15T10:25:24;2.53;;;1.80;;
62463;SDS011;48512;48.552;9.380;2024-01-15T10:28:01;4.43;;;2.20;;
62463;SDS011;48512;48.552;9.380;2024-01-15T10:30:28;3.75;;;1.95;;
62463;SDS011;48512;48.552;9.380;2024-01-15T10:33:01;3.25;;;2.00;;
62463;SDS011;48512;48.552;9.380;2024-01-15T10:37:54;3.72;;;2.35;;
62463;SDS011;48512;48.552;9.380;2024-01-15T10:40:20;3.35;;;2.13;;
62463;SDS011;48512;48.552;9.380;2024-01-15T10:42:46;3.20;;;2.10;;
62463;SDS011;48512;48.552;9.380;2024-01-15T10:45:13;4.43;;;2.33;;
62463;SDS011;48512;48.552;9.380;2024-01-15T10:47:43;4.15;;;2.65;;
62463;SDS011;48512;48.552;9.380;2024-01-15T10:50:10;3.92;;;2.30;;
62463;SDS011;48512;48.552;9.380;2024-01-15T10:52:36;4.90;;;2.90;;
62463;SDS011;48512;48.552;9.380;2024-01-15T10:55:03;5.03;;;2.22;;
62463;SDS011;48512;48.552;9.380;2024-01-15T10:57:30;4.15;;;2.22;;
62463;SDS011;48512;48.552;9.380;2024-01-15T10:59:57;5.32;;;2.45;;
62463;SDS011;48512;48.552;9.380;2024-01-15T11:02:24;5.35;;;2.70;;
62463;SDS011;48512;48.552;9.380;2024-01-15T11:04:51;4.50;;;2.35;;
62463;SDS011;48512;48.552;9.380;2024-01-15T11:07:17;7.40;;;3.30;;
62463;SDS011;48512;48.552;9.380;2024-01-15T11:09:49;5.95;;;3.13;;
62463;SDS011;48512;48.552;9.380;2024-01-15T11:12:16;6.35;;;3.58;;
62463;SDS011;48512;48.552;9.380;2024-01-15T11:14:46;8.00;;;3.00;;
62463;SDS011;48512;48.552;9.380;2024-01-15T11:17:14;6.68;;;2.33;;
62463;SDS011;48512;48.552;9.380;2024-01-15T11:22:11;4.57;;;2.72;;
62463;SDS011;48512;48.552;9.380;2024-01-15T11:24:57;4.57;;;2.33;;
62463;SDS011;48512;48.552;9.380;2024-01-15T11:27:39;6.25;;;2.72;;
62463;SDS011;48512;48.552;9.380;2024-01-15T11:30:09;4.32;;;2.50;;
62463;SDS011;48512;48.552;9.380;2024-01-15T11:32:39;4.80;;;2.55;;
62463;SDS011;48512;48.552;9.380;2024-01-15T11:35:08;4.07;;;2.83;;
62463;SDS011;48512;48.552;9.380;2024-01-15T11:40:14;5.50;;;2.40;;
62463;SDS011;48512;48.552;9.380;2024-01-15T11:42:46;4.25;;;2.42;;
62463;SDS011;48512;48.552;9.380;2024-01-15T11:45:14;3.75;;;2.58;;
62463;SDS011;48512;48.552;9.380;2024-01-15T11:50:13;5.68;;;2.63;;
62463;SDS011;48512;48.552;9.380;2024-01-15T11:52:40;4.90;;;2.25;;
62463;SDS011;48512;48.552;9.380;2024-01-15T11:55:27;4.53;;;2.67;;
62463;SDS011;48512;48.552;9.380;2024-01-15T11:57:55;4.25;;;2.22;;
62463;SDS011;48512;48.552;9.380;2024-01-15T12:00:23;6.95;;;2.50;;
62463;SDS011;48512;48.552;9.380;2024-01-15T12:02:50;5.05;;;2.70;;
62463;SDS011;48512;48.552;9.380;2024-01-15T12:05:19;4.70;;;2.80;;
62463;SDS011;48512;48.552;9.380;2024-01-15T12:07:47;6.55;;;2.55;;
62463;SDS011;48512;48.552;9.380;2024-01-15T12:10:14;4.20;;;2.70;;
62463;SDS011;48512;48.552;9.380;2024-01-15T12:15:26;6.55;;;3.42;;
62463;SDS011;48512;48.552;9.380;2024-01-15T12:17:55;6.50;;;3.05;;
62463;SDS011;48512;48.552;9.380;2024-01-15T12:20:24;9.48;;;3.38;;
62463;SDS011;48512;48.552;9.380;2024-01-15T12:22:50;5.53;;;3.05;;
62463;SDS011;48512;48.552;9.380;2024-01-15T12:25:17;8.70;;;3.20;;
62463;SDS011;48512;48.552;9.380;2024-01-15T12:27:43;7.20;;;3.47;;
62463;SDS011;48512;48.552;9.380;2024-01-15T12:30:13;6.10;;;3.50;;
62463;SDS011;48512;48.552;9.380;2024-01-15T12:32:40;7.22;;;3.88;;
62463;SDS011;48512;48.552;9.380;2024-01-15T12:35:09;7.10;;;3.17;;
62463;SDS011;48512;48.552;9.380;2024-01-15T12:37:39;6.82;;;3.83;;
62463;SDS011;48512;48.552;9.380;2024-01-15T12:40:07;5.78;;;3.22;;
62463;SDS011;48512;48.552;9.380;2024-01-15T12:42:41;5.00;;;3.03;;
62463;SDS011;48512;48.552;9.380;2024-01-15T12:45:09;9.13;;;3.45;;
62463;SDS011;48512;48.552;9.380;2024-01-15T12:47:36;7.75;;;3.42;;
62463;SDS011;48512;48.552;9.380;2024-01-15T12:50:05;8.77;;;4.25;;
62463;SDS011;48512;48.552;9.380;2024-01-15T12:52:32;6.32;;;3.72;;
62463;SDS011;48512;48.552;9.380;2024-01-15T12:54:58;6.60;;;3.38;;
62463;SDS011;48512;48.552;9.380;2024-01-15T12:57:24;7.25;;;3.67;;
62463;SDS011;48512;48.552;9.380;2024-01-15T12:59:50;7.35;;;3.92;;
62463;SDS011;48512;48.552;9.380;2024-01-15T13:02:17;9.95;;;4.30;;
62463;SDS011;48512;48.552;9.380;2024-01-15T13:04:43;8.20;;;3.85;;
62463;SDS011;48512;48.552;9.380;2024-01-15T13:07:09;6.47;;;3.92;;
62463;SDS011;48512;48.552;9.380;2024-01-15T13:09:35;6.35;;;3.90;;
62463;SDS011;48512;48.552;9.380;2024-01-15T13:12:04;6.60;;;3.90;;
62463;SDS011;48512;48.552;9.380;2024-01-15T13:14:31;8.07;;;4.10;;
62463;SDS011;48512;48.552;9.380;2024-01-15T13:16:58;7.43;;;4.03;;
62463;SDS011;48512;48.552;9.380;2024-01-15T13:19:25;8.20;;;4.85;;
62463;SDS011;48512;48.552;9.380;2024-01-15T13:21:51;10.65;;;4.70;;
62463;SDS011;48512;48.552;9.380;2024-01-15T13:24:19;8.07;;;4.93;;
62463;SDS011;48512;48.552;9.380;2024-01-15T13:26:46;10.68;;;4.65;;
62463;SDS011;48512;48.552;9.380;2024-01-15T13:29:12;8.48;;;4.65;;
62463;SDS011;48512;48.552;9.380;2024-01-15T13:31:39;11.63;;;5.25;;
62463;SDS011;48512;48.552;9.380;2024-01-15T13:34:05;11.15;;;5.68;;
62463;SDS011;48512;48.552;9.380;2024-01-15T13:36:32;7.72;;;3.95;;
62463;SDS011;48512;48.552;9.380;2024-01-15T13:38:59;10.57;;;5.18;;
62463;SDS011;48512;48.552;9.380;2024-01-15T13:41:25;9.52;;;4.90;;
62463;SDS011;48512;48.552;9.380;2024-01-15T13:43:53;12.00;;;5.50;;
62463;SDS011;48512;48.552;9.380;2024-01-15T13:46:23;11.73;;;5.20;;
62463;SDS011;48512;48.552;9.380;2024-01-15T13:48:50;11.20;;;4.68;;
62463;SDS011;48512;48.552;9.380;2024-01-15T13:51:16;13.25;;;5.57;;
62463;SDS011;48512;48.552;9.380;2024-01-15T13:53:42;10.60;;;5.25;;
62463;SDS011;48512;48.552;9.380;2024-01-15T13:56:08;11.55;;;4.82;;
62463;SDS011;48512;48.552;9.380;2024-01-15T13:58:36;11.27;;;5.18;;
62463;SDS011;48512;48.552;9.380;2024-01-15T14:01:02;13.40;;;5.93;;
62463;SDS011;48512;48.552;9.380;2024-01-15T14:03:32;15.80;;;5.88;;
62463;SDS011;48512;48.552;9.380;2024-01-15T14:06:00;12.65;;;5.68;;
62463;SDS011;48512;48.552;9.380;2024-01-15T14:08:28;15.15;;;7.10;;
62463;SDS011;48512;48.552;9.380;2024-01-15T14:10:54;11.40;;;5.43;;
62463;SDS011;48512;48.552;9.380;2024-01-15T14:13:22;11.95;;;5.53;;
62463;SDS011;48512;48.552;9.380;2024-01-15T14:15:49;10.95;;;5.50;;
62463;SDS011;48512;48.552;9.380;2024-01-15T14:18:18;12.98;;;6.40;;
62463;SDS011;48512;48.552;9.380;2024-01-15T14:20:44;12.02;;;5.65;;
62463;SDS011;48512;48.552;9.380;2024-01-15T14:23:11;13.02;;;6.22;;
62463;SDS011;48512;48.552;9.380;2024-01-15T14:25:39;31.85;;;11.95;;
62463;SDS011;48512;48.552;9.380;2024-01-15T14:28:05;18.38;;;8.52;;
62463;SDS011;48512;48.552;9.380;2024-01-15T14:30:32;13.23;;;6.43;;
62463;SDS011;48512;48.552;9.380;2024-01-15T14:32:58;9.43;;;4.95;;
62463;SDS011;48512;48.552;9.380;2024-01-15T14:35:24;11.30;;;5.50;;
62463;SDS011;48512;48.552;9.380;2024-01-15T14:37:50;10.93;;;5.93;;
62463;SDS011;48512;48.552;9.380;2024-01-15T14:40:16;13.65;;;7.65;;
62463;SDS011;48512;48.552;9.380;2024-01-15T14:42:43;13.00;;;7.03;;
62463;SDS011;48512;48.552;9.380;2024-01-15T14:45:09;13.50;;;6.53;;
62463;SDS011;48512;48.552;9.380;2024-01-15T14:47:37;14.02;;;7.00;;
62463;SDS011;48512;48.552;9.380;2024-01-15T14:50:07;14.50;;;6.78;;